Republic, Ohio
Current Conditions -  °F | °C
As of 10:33 PM on Saturday 22 Nov 2014 (Local Time) from KPCW Reporting Station
Overcast Overcast  
Wind Chill: 52°   Ceiling: 4200
Heat Index: 52°   Visibility: 10mi
Dew Point: 39°   Wind: 10mph
Humidity: 62%   Direction: 200°SSW
Pressure: 29.98"   Gusts: NA
Location:  41.12°N, 83.02°W
Report Text: KPCW 230333Z AUTO 20009KT 10SM OVC042 11/04 A2998 RMK AO2 $
Loading
Personal Weather Stations






























Interactive Weather Map New forecast layout! Learn more

10-Day Weather Forecast

Advertisements
Track Severe Weather on mobile